Flight Track Log - Related Links

Times and Time Zones

All times are in EDT time to prevent confusion due to time zone crossing. See the N121PR flight status page for this flight to view local times or setup timezone preferences in your user account.

Time Position Orientation Groundspeed Altitude Reporting Facility
EDT Latitude Longitude Course Direction KTS MPH feet Rate Location/Type
Mon 09:40:00 AM 32.5342 -80.2404 232° Southwest  Level FlightAware Approximate
Mon 09:41:00 AM 32.5049 -80.2785 220° Southwest  Level FlightAware Approximate
Mon 09:42:00 AM 32.4825 -80.3180 232° Southwest  Level FlightAware Approximate
Mon 09:43:00 AM 32.4555 -80.3586 232° Southwest  Level FlightAware Approximate
Mon 09:44:00 AM 32.4285 -80.3992 232° Southwest  Level FlightAware Approximate
Mon 09:45:00 AM 32.4015 -80.4398 232° Southwest  Level FlightAware Approximate
Mon 09:46:00 AM 32.3745 -80.4804 232° Southwest  Level FlightAware Approximate
Mon 09:47:00 AM 32.3475 -80.5210 232° Southwest  Level FlightAware Approximate
Mon 09:48:00 AM 32.3205 -80.5615 232° Southwest  Level FlightAware Approximate
Mon 09:49:00 AM 32.2934 -80.6020 232° Southwest  Level FlightAware Approximate
Mon 09:50:00 AM 32.2663 -80.6425 232° Southwest  Level FlightAware Approximate
Mon 09:51:00 AM 32.2393 -80.6829 232° Southwest  Level FlightAware Approximate
Mon 09:52:00 AM 32.2123 -80.7235 233° Southwest  Level FlightAware Approximate
Mon 09:53:00 AM 32.1860 -80.7646 233° Southwest  Level FlightAware Approximate
Mon 09:54:00 AM 32.1597 -80.8057 233° Southwest  Level FlightAware Approximate
Mon 09:55:00 AM 32.1334 -80.8468 233° Southwest  Level FlightAware Approximate
Mon 09:56:00 AM 32.1070 -80.8879 233° Southwest  Level FlightAware Approximate
Mon 09:57:00 AM 32.0807 -80.9289 233° Southwest  Level FlightAware Approximate
Mon 09:58:00 AM 32.0543 -80.9699 233° Southwest  Level FlightAware Approximate
Mon 09:59:00 AM 32.0279 -81.0109 233° Southwest  Level FlightAware Approximate
Mon 10:00:00 AM 32.0015 -81.0519 233° Southwest  Level FlightAware Approximate
Mon 10:01:00 AM 31.9751 -81.0928 233° Southwest  Level FlightAware Approximate
Mon 10:02:00 AM 31.9487 -81.1338 233° Southwest  Level FlightAware Approximate
Mon 10:03:00 AM 31.9223 -81.1747 233° Southwest  Level FlightAware Approximate
Mon 10:04:00 AM 31.8828 -81.1901 190° South  Level FlightAware Approximate
Mon 10:05:00 AM 31.8398 -81.1987 190° South  Level FlightAware Approximate
Mon 10:06:00 AM 31.7976 -81.2119 196° South  Level FlightAware Approximate
Mon 10:07:00 AM 31.7557 -81.2259 196° South  Level FlightAware Approximate
Mon 10:08:00 AM 31.7137 -81.2399 196° South  Level FlightAware Approximate
Mon 10:09:00 AM 31.6716 -81.2534 194° South  Level FlightAware Approximate
Mon 10:10:00 AM 31.6292 -81.2655 194° South  Level FlightAware Approximate
Mon 10:11:00 AM 31.5868 -81.2776 194° South  Level FlightAware Approximate
Mon 10:12:00 AM 31.5444 -81.2897 194° South  Level FlightAware Approximate
Mon 10:13:00 AM 31.5021 -81.3018 194° South  Level FlightAware Approximate
Mon 10:14:00 AM 31.4597 -81.3139 194° South  Level FlightAware Approximate
Mon 10:15:00 AM 31.4173 -81.3262 194° South  Level FlightAware Approximate
Mon 10:16:00 AM 31.3750 -81.3386 194° South  Level FlightAware Approximate
Mon 10:16:15 AM 31.6633 -81.2644 194° South 152 175 8,000  Level Jacksonville Center
Mon 10:17:00 AM 31.3326 -81.3510 194° South  Level FlightAware Approximate
Mon 10:17:16 AM 31.6175 -81.2800 196° South 152 175 8,000  Level Jacksonville Center
Mon 10:18:00 AM 31.2903 -81.3634 194° South  Level FlightAware Approximate
Mon 10:18:15 AM 31.5822 -81.2878 191° South 152 175 8,000  Level Jacksonville Center
Mon 10:19:00 AM 31.2480 -81.3757 194° South  Level FlightAware Approximate
Mon 10:19:16 AM 31.5469 -81.2983 194° South 152 175 8,000  Level Jacksonville Center
Mon 10:20:00 AM 31.2057 -81.3880 194° South  Level FlightAware Approximate
Mon 10:20:16 AM 31.5053 -81.3111 195° South 147 169 8,000  Level Jacksonville Center
Mon 10:21:00 AM 31.1633 -81.4004 194° South  Level FlightAware Approximate
Mon 10:21:15 AM 31.4617 -81.3242 194° South 147 169 8,000  Level Jacksonville Center
Mon 10:22:15 AM 31.4200 -81.3369 195° South 147 169 8,000  Level Jacksonville Center
Mon 10:23:16 AM 31.3847 -81.3472 194° South 147 169 8,000  Level Jacksonville Center
Mon 10:24:16 AM 31.3450 -81.3600 195° South 147 169 8,000  Level Jacksonville Center
Mon 10:25:15 AM 31.3014 -81.3728 194° South 147 169 8,000  Level Jacksonville Center
Mon 10:26:15 AM 31.2619 -81.3858 196° South 153 176 8,000  Level Jacksonville Center
Mon 10:26:49 AM 31.2411 -81.3886 187° South 148 170 8,000  Level Jacksonville Center
Mon 10:27:15 AM 31.2222 -81.3961 199° South 145 167 8,000  Level Jacksonville Center
Mon 10:27:32 AM 31.2119 -81.3986 192° South 148 170 8,000  Level Jacksonville Center
Mon 10:28:27 AM 31.1767 -81.4089 194° South 150 173 8,000  Level Jacksonville Center
Mon 10:29:16 AM 31.1453 -81.4217 199° South 150 173 8,000 -56 Level Jacksonville Center
Mon 10:30:15 AM 31.0997 -81.4344 194° South 150 173 7,900 -50 Descending Jacksonville Center
Mon 10:31:15 AM 31.0642 -81.4472 197° South 150 173 7,900  Level Jacksonville Center
Mon 10:31:36 AM 31.0456 -81.4497 187° South 150 173 7,900  Level Jacksonville Center
Mon 10:32:16 AM 31.0289 -81.4694 225° Southwest 150 173 7,900  Level Jacksonville Center
Mon 10:32:43 AM 31.0103 -81.4867 218° Southwest 146 168 7,900  Level Jacksonville Center
Mon 10:33:15 AM 31.0003 -81.5039 236° Southwest 150 173 7,900 109 Level Jacksonville Center
Mon 10:33:38 AM 30.9814 -81.5186 214° Southwest 148 170 8,000 98 Climbing Jacksonville Center
Mon 10:34:16 AM 30.9692 -81.5333 226° Southwest 150 173 8,000 -98 Level Jacksonville Center
Mon 10:34:39 AM 30.9528 -81.5506 222° Southwest 148 170 7,900 -100 Descending Jacksonville Center
Mon 10:35:16 AM 30.9383 -81.5678 226° Southwest 156 180 7,900 98 Level Jacksonville Center
Mon 10:35:40 AM 30.9194 -81.5850 218° Southwest 157 181 8,000  Climbing Jacksonville Center
Mon 10:36:15 AM 30.9072 -81.5997 226° Southwest 161 185 7,900 -98 Descending Jacksonville Center
Mon 10:36:41 AM 30.8906 -81.6167 221° Southwest 151 174 7,900  Level Jacksonville Center
Mon 10:37:48 AM 30.8556 -81.6536 222° Southwest 151 174 7,900  Level Jacksonville Center
Mon 10:38:43 AM 30.8286 -81.6831 223° Southwest 153 176 7,900  Level Jacksonville Center
Mon 10:39:38 AM 30.7956 -81.7147 219° Southwest 152 175 7,900  Level Jacksonville Center
Mon 10:40:45 AM 30.7625 -81.7492 222° Southwest 150 173 7,900  Level Jacksonville Center
Mon 10:41:40 AM 30.7336 -81.7833 225° Southwest 151 174 7,900  Level Jacksonville Center
Mon 10:42:41 AM 30.7025 -81.8150 221° Southwest 148 170 7,900 47 Level Jacksonville Center
Mon 10:43:48 AM 30.6694 -81.8492 222° Southwest 151 174 8,000  Climbing Jacksonville Center
Mon 10:44:43 AM 30.6403 -81.8786 221° Southwest 149 171 7,900 -51 Descending Jacksonville Center
Mon 10:45:45 AM 30.6094 -81.9150 225° Southwest 151 174 7,900  Level Jacksonville Center
Mon 10:46:52 AM 30.5761 -81.9492 221° Southwest 153 176 7,900  Level Jacksonville Center
Mon 10:47:52 AM 30.5411 -81.9856 222° Southwest 151 174 7,900  Level Jacksonville Center
Mon 10:48:53 AM 30.5119 -82.0172 223° Southwest 153 176 7,900  Level Jacksonville Center
Mon 10:49:55 AM 30.4808 -82.0514 223° Southwest 152 175 7,900  Level Jacksonville Center
Mon 10:50:55 AM 30.4392 -82.0636 194° South 155 178 7,900  Level Jacksonville Center
Mon 10:51:57 AM 30.3956 -82.0736 191° South 155 178 7,900 -49 Level Jacksonville Center
Mon 10:52:58 AM 30.3517 -82.0861 194° South 157 181 7,800 -248 Descending Jacksonville Center
Mon 10:53:58 AM 30.3058 -82.1011 196° South 166 191 7,400 -417 Descending Jacksonville Center
Mon 10:54:53 AM 30.2683 -82.1108 193° South 167 192 7,000 -205 Descending Jacksonville Center
Mon 10:55:55 AM 30.2225 -82.1258 196° South 159 183 7,000  Level Jacksonville Center
Mon 10:56:56 AM 30.1786 -82.1381 194° South 155 178 7,000  Level Jacksonville Center
Mon 10:57:57 AM 30.1350 -82.1528 196° South 155 178 7,000  Level Jacksonville Center
Mon 10:58:58 AM 30.0933 -82.1653 195° South 154 177 7,000  Level Jacksonville Center
Mon 10:59:59 AM 30.0517 -82.1750 191° South 152 175 7,000  Level Jacksonville Center
Mon 11:01:06 AM 30.0036 -82.1875 193° South 154 177 7,000 -47 Level Jacksonville Center
Mon 11:02:07 AM 29.9619 -82.1997 194° South 154 177 6,900 -49 Descending Jacksonville Center
Mon 11:03:08 AM 29.9181 -82.2119 194° South 155 178 6,900  Level Jacksonville Center
Mon 11:04:15 AM 29.8722 -82.2242 193° South 156 180 6,900  Level Jacksonville Center
Mon 11:05:16 AM 29.8286 -82.2367 194° South 157 181 6,900  Level Jacksonville Center
Mon 11:06:11 AM 29.7889 -82.2489 195° South 157 181 6,900  Level Jacksonville Center
Mon 11:07:12 AM 29.7492 -82.2611 195° South 156 180 6,900  Level Jacksonville Center
Mon 11:08:19 AM 29.7033 -82.2733 193° South 156 180 6,900  Level Jacksonville Center
Mon 11:09:08 AM 29.6658 -82.2711 177° South 161 185 6,900  Level Jacksonville Center
Mon 11:10:21 AM 29.6114 -82.2692 178° South 158 182 6,900  Level Jacksonville Center
Mon 11:11:16 AM 29.5719 -82.2644 174° South 157 181 6,900  Level Jacksonville Center
Mon 11:12:11 AM 29.5322 -82.2625 178° South 157 181 6,900  Level Jacksonville Center
Mon 11:13:12 AM 29.4883 -82.2556 172° South 157 181 6,900  Level Jacksonville Center
Mon 11:14:14 AM 29.4444 -82.2511 175° South 157 181 6,900  Level Jacksonville Center
Mon 11:15:14 AM 29.3986 -82.2489 178° South 159 183 6,900  Level Jacksonville Center
Mon 11:16:16 AM 29.3525 -82.2444 175° South 162 186 6,900  Level Jacksonville Center
Mon 11:17:17 AM 29.3086 -82.2425 178° South 161 185 6,900  Level Jacksonville Center
Mon 11:18:18 AM 29.2628 -82.2356 172° South 161 185 6,900  Level Jacksonville Center
Mon 11:19:18 AM 29.2147 -82.2336 178° South 160 184 6,900  Level Jacksonville Center
Mon 11:20:20 AM 29.1731 -82.2314 177° South 160 184 6,900  Level Jacksonville Center
Mon 11:21:33 AM 29.1186 -82.2200 170° South 162 186 6,900  Level Jacksonville Center
Mon 11:22:34 AM 29.0728 -82.2108 170° South 163 188 6,900  Level Jacksonville Center
Mon 11:23:35 AM 29.0267 -82.2017 170° South 162 186 6,900  Level Jacksonville Center
Mon 11:24:30 AM 28.9892 -82.1947 171° South 161 185 6,900  Level Jacksonville Center
Mon 11:25:30 AM 28.9431 -82.1878 172° South 163 188 6,900  Level Jacksonville Center
Mon 11:26:32 AM 28.8972 -82.1786 170° South 165 190 6,900  Level Jacksonville Center
Mon 11:27:33 AM 28.8469 -82.1694 171° South 164 189 6,900  Level Jacksonville Center
Mon 11:30:00 AM 28.7333 -82.1500 171° South 162 186 6,900  Level Tampa TRACON
Mon 11:31:06 AM 28.6833 -82.1333 164° South 161 185 6,900  Level Tampa TRACON
Mon 11:32:00 AM 28.6500 -82.1333 180° South 161 185 6,900  Level Tampa TRACON
Mon 11:33:01 AM 28.6000 -82.1167 164° South 162 186 6,900  Level Tampa TRACON
Mon 11:34:00 AM 28.5667 -82.1167 180° South 161 185 6,900  Level Tampa TRACON
Mon 11:35:00 AM 28.5167 -82.1167 180° South 160 184 6,900  Level Tampa TRACON
Mon 11:36:01 AM 28.4667 -82.1000 164° South 162 186 6,900  Level Tampa TRACON
Mon 11:37:01 AM 28.4333 -82.1000 180° South 161 185 6,900  Level Tampa TRACON
Mon 11:38:01 AM 28.3833 -82.0833 164° South 163 188 6,900  Level Tampa TRACON
Mon 11:39:07 AM 28.3333 -82.0833 180° South 161 185 6,900  Level Tampa TRACON
Mon 11:40:01 AM 28.3000 -82.0667 156° South 162 186 6,900  Level Tampa TRACON
Mon 11:41:07 AM 28.2500 -82.0667 180° South 163 188 6,900  Level Tampa TRACON
Mon 11:42:07 AM 28.2000 -82.0500 164° South 163 188 6,900  Level Tampa TRACON
Mon 11:43:07 AM 28.1500 -82.0500 180° South 163 188 6,900  Level Tampa TRACON
Mon 11:44:51 AM 28.0864 -82.0336 167° South 130 150 6,900  Level Miami Center
Mon 11:45:51 AM 28.0408 -82.0247 170° South 148 170 6,900  Level Miami Center
Mon 11:46:51 AM 27.9953 -82.0178 172° South 161 185 6,900  Level Miami Center
Mon 11:47:51 AM 27.9542 -81.9994 158° South 161 185 6,900 50 Level Miami Center
Mon 11:48:51 AM 27.9131 -81.9767 154° Southeast 161 185 7,000  Climbing Miami Center
Mon 11:49:51 AM 27.8744 -81.9536 152° Southeast 166 191 6,900 -50 Descending Miami Center
Mon 11:50:51 AM 27.8314 -81.9306 155° Southeast 166 191 6,900  Level Miami Center
Mon 11:51:51 AM 27.7839 -81.9119 161° South 171 197 6,900  Level Miami Center
Mon 11:52:51 AM 27.7400 -81.9147 183° South 162 186 6,900  Level Miami Center
Mon 11:53:51 AM 27.6939 -81.9244 191° South 162 186 6,900  Level Miami Center
Mon 11:54:51 AM 27.6519 -81.9250 181° South 162 186 6,900  Level Miami Center
Mon 11:55:51 AM 27.6019 -81.9297 185° South 162 186 6,900  Level Miami Center
Mon 11:56:51 AM 27.5578 -81.9347 186° South 162 186 6,900  Level Miami Center
Mon 11:57:51 AM 27.5119 -81.9375 183° South 162 186 6,900  Level Miami Center
Mon 11:58:51 AM 27.4636 -81.9425 185° South 162 186 6,900  Level Miami Center
Mon 11:59:51 AM 27.4197 -81.9450 183° South 162 186 6,900  Level Miami Center
Mon 12:00:51 PM 27.3736 -81.9500 186° South 162 186 6,900  Level Miami Center
Mon 12:01:51 PM 27.3294 -81.9575 189° South 162 186 6,900  Level Miami Center
Mon 12:02:51 PM 27.2814 -81.9600 183° South 162 186 6,900  Level Miami Center
Mon 12:03:51 PM 27.2356 -81.9628 183° South 162 186 6,900  Level Miami Center
Mon 12:04:51 PM 27.1914 -81.9678 186° South 162 186 6,900 50 Level Miami Center
Mon 12:05:51 PM 27.1517 -81.9706 184° South 162 186 7,000 50 Climbing Miami Center
Mon 12:06:51 PM 27.1094 -81.9828 194° South 157 181 7,000  Level Miami Center
Mon 12:07:51 PM 27.0675 -81.9903 189° South 162 186 7,000  Level Miami Center
Mon 12:08:51 PM 27.0211 -82.0022 193° South 162 186 7,000  Level Miami Center
Mon 12:09:51 PM 26.9775 -82.0003 178° South 162 186 7,000  Level Miami Center
Mon 12:10:51 PM 26.9314 -82.0053 186° South 162 186 7,000  Level Miami Center
Mon 12:12:00 PM 26.8857 -81.9917 167° South  Level Estimated
Mon 12:19:00 PM 26.6077 -81.9074 165° South  Level FlightAware Approximate
Mon 12:20:00 PM 26.5625 -81.8931 163° South  Level FlightAware Approximate
Mon 12:21:00 PM 26.5229 -81.8807 167° South  Level FlightAware Approximate
Mon 12:22:00 PM 26.4827 -81.8707 167° South  Level FlightAware Approximate
Mon 12:23:00 PM 26.4430 -81.8588 163° South  Level FlightAware Approximate
Mon 12:24:00 PM 26.4036 -81.8456 163° South  Level FlightAware Approximate
Mon 12:25:00 PM 26.3642 -81.8325 163° South  Level FlightAware Approximate
Mon 12:26:00 PM 26.3248 -81.8193 163° South  Level FlightAware Approximate
Mon 12:27:00 PM 26.2854 -81.8062 163° South  Level FlightAware Approximate
Mon 12:28:00 PM 26.2460 -81.7931 163° South  Level FlightAware Approximate
Mon 12:29:00 PM 26.2064 -81.7807 167° South  Level FlightAware Approximate
Mon 12:30:00 PM 26.1662 -81.7707 167° South  Level FlightAware Approximate
Mon 12:31:00 PM 26.1500 -81.7667 167° South  Level FlightAware Approximate
Mon 12:32:00 PM 26.1524 -81.7756 167° South  Level Estimated
Mon 12:33:00 PM 26.1524 -81.7756 167° South  Level Estimated
Mon 12:34:00 PM 26.1524 -81.7756 167° South  Level Estimated
Mon 12:35:00 PM 26.1524 -81.7756 167° South  Level Estimated
Mon 12:36:00 PM 26.1524 -81.7756 167° South  Level Estimated
Mon 12:37:00 PM 26.1524 -81.7756 167° South  Level Estimated
Mon 12:38:00 PM 26.1524 -81.7756 167° South  Level Estimated
Mon 12:39:00 PM 26.1524 -81.7756 167° South  Level Estimated
Mon 12:40:00 PM 26.1524 -81.7756 167° South  Level Estimated
Mon 12:41:00 PM 26.1524 -81.7756 167° South  Level Estimated
Mon 12:42:00 PM 26.1524 -81.7756 167° South  Level Estimated
Mon 12:43:00 PM 26.1524 -81.7756 167° South  Level Estimated
Mon 12:44:00 PM 26.1524 -81.7756 167° South  Level Estimated
Mon 12:45:00 PM 26.1524 -81.7756 167° South  Level Estimated
Mon 12:46:00 PM 26.1524 -81.7756 167° South  Level Estimated
Mon 12:47:00 PM 26.1524 -81.7756 167° South  Level Estimated
Mon 12:48:00 PM 26.1524 -81.7756 167° South  Level Estimated

Login

Don't have an account? Register now (free) for customized features, flight alerts, and more!